Time;durP1;ratioP1;P1;durP2;ratioP2;P2;SDS_P1;SDS_P2;PMS_P1;PMS_P2;Temp;Humidity;BMP_temperature;BMP_pressure;BME280_temperature;BME280_humidity;BME280_pressure;Samples;Min_cycle;Max_cycle;Signal;HPM_P1;HPM_P2
2021/01/02 00:01:05;;;;;;;2.87;2.78;;;;;;;1.11;100.00;100634.88;4399647;32;20064;-72
2021/01/02 00:03:49;;;;;;;1.60;1.60;;;;;;;1.41;100.00;100689.03;4399334;32;20085;-72
2021/01/02 00:06:26;;;;;;;2.00;1.90;;;;;;;1.40;100.00;100684.75;4411432;32;20060;-71
2021/01/02 00:09:14;;;;;;;1.70;1.70;;;;;;;1.39;100.00;100675.19;4418045;32;20069;-71
2021/01/02 00:11:42;;;;;;;2.12;2.03;;;;;;;1.41;100.00;100680.31;4398340;32;20095;-71
2021/01/02 00:14:12;;;;;;;1.65;1.65;;;;;;;1.40;100.00;100676.03;4412275;32;20070;-72
2021/01/02 00:16:41;;;;;;;1.77;1.75;;;;;;;1.40;100.00;100678.66;4387682;32;20067;-72
2021/01/02 00:19:16;;;;;;;2.00;1.90;;;;;;;1.39;100.00;100680.44;4406904;32;20061;-71
2021/01/02 00:21:54;;;;;;;2.30;2.20;;;;;;;1.38;100.00;100678.81;4400166;32;20080;-72
2021/01/02 00:24:31;;;;;;;1.65;1.65;;;;;;;0.59;100.00;100560.88;4425117;32;20076;-71
2021/01/02 00:27:04;;;;;;;1.70;1.70;;;;;;;1.34;100.00;100682.69;4398142;32;20077;-72
2021/01/02 00:29:46;;;;;;;1.60;1.60;;;;;;;1.33;100.00;100680.22;4410691;32;20077;-72
2021/01/02 00:32:17;;;;;;;1.62;1.62;;;;;;;1.30;100.00;100681.34;4404483;32;20084;-72
2021/01/02 00:34:54;;;;;;;1.87;1.77;;;;;;;1.26;100.00;100683.44;4408655;32;20125;-72
2021/01/02 00:37:27;;;;;;;2.45;2.35;;;;;;;1.24;100.00;100685.41;4414304;32;20575;-72
2021/01/02 00:39:55;;;;;;;1.70;1.70;;;;;;;1.23;100.00;100685.56;4409373;32;20083;-73
2021/01/02 00:42:21;;;;;;;1.70;1.70;;;;;;;1.23;100.00;100696.09;4411886;32;20064;-71
2021/01/02 00:44:46;;;;;;;1.80;1.80;;;;;;;1.22;100.00;100684.72;4404534;32;20065;-72
2021/01/02 00:47:12;;;;;;;2.83;2.62;;;;;;;1.23;100.00;100690.81;4396002;32;20077;-72
2021/01/02 00:49:38;;;;;;;2.15;2.05;;;;;;;1.23;100.00;100696.09;4394196;32;20165;-72
2021/01/02 00:52:24;;;;;;;2.15;1.95;;;;;;;1.21;100.00;100693.59;4385087;32;20207;-71
2021/01/02 00:54:58;;;;;;;1.67;1.67;;;;;;;1.20;100.00;100694.56;4401225;32;20150;-71
2021/01/02 00:57:40;;;;;;;2.03;1.92;;;;;;;1.21;100.00;100695.38;4384048;32;20093;-72
2021/01/02 01:00:06;;;;;;;2.33;2.22;;;;;;;0.95;100.00;100664.50;4390740;32;20061;-72
2021/01/02 01:02:55;;;;;;;1.70;1.70;;;;;;;1.20;100.00;100696.38;4388923;32;20065;-72
2021/01/02 01:05:21;;;;;;;1.67;1.67;;;;;;;1.21;100.00;100700.66;4391866;32;20924;-72
2021/01/02 01:07:53;;;;;;;1.60;1.60;;;;;;;0.93;100.00;100664.66;4399354;32;20076;-71
2021/01/02 01:10:26;;;;;;;1.55;1.55;;;;;;;1.18;100.00;100703.62;4368146;32;20084;-71
2021/01/02 01:13:06;;;;;;;2.03;1.92;;;;;;;1.17;100.00;100701.94;4386210;32;20644;-72
2021/01/02 01:15:32;;;;;;;1.85;1.75;;;;;;;1.18;100.00;100703.62;4384542;32;20548;-71
2021/01/02 01:18:10;;;;;;;1.75;1.73;;;;;;;1.17;100.00;100707.22;4394980;32;21054;-72
2021/01/02 01:20:35;;;;;;;1.90;1.80;;;;;;;1.16;100.00;100703.75;4393971;32;20092;-70
2021/01/02 01:23:39;;;;;;;1.58;1.58;;;;;;;1.16;100.00;100703.75;4384151;32;20124;-72
2021/01/02 01:26:20;;;;;;;1.55;1.55;;;;;;;1.17;100.00;100707.22;4389904;32;20696;-72
2021/01/02 01:28:47;;;;;;;1.50;1.50;;;;;;;1.16;100.00;100706.41;4410751;32;20619;-72
2021/01/02 01:31:16;;;;;;;1.70;1.70;;;;;;;1.16;100.00;100705.56;4369603;32;20061;-72
2021/01/02 01:33:41;;;;;;;1.50;1.50;;;;;;;0.90;100.00;100680.72;4380147;32;20069;-71
2021/01/02 01:36:07;;;;;;;1.90;1.80;;;;;;;1.12;100.00;100711.13;4379773;32;20069;-71
2021/01/02 01:38:32;;;;;;;1.75;1.75;;;;;;;1.10;100.00;100707.81;4396674;32;20226;-71
2021/01/02 01:41:13;;;;;;;1.60;1.60;;;;;;;1.06;100.00;100706.44;4373962;32;20085;-71
2021/01/02 01:44:09;;;;;;;2.20;2.10;;;;;;;1.01;100.00;100708.69;4379329;32;20188;-73
2021/01/02 01:46:50;;;;;;;1.58;1.58;;;;;;;1.00;100.00;100709.66;4419785;32;20097;-71
2021/01/02 01:49:31;;;;;;;3.85;2.10;;;;;;;1.00;100.00;100716.72;4411067;32;20514;-71
2021/01/02 01:51:58;;;;;;;2.35;2.25;;;;;;;1.00;100.00;100714.09;4405138;32;20076;-72
2021/01/02 01:54:26;;;;;;;1.58;1.58;;;;;;;0.97;100.00;100709.94;4395739;32;20088;-72
2021/01/02 01:56:51;;;;;;;2.37;2.28;;;;;;;0.98;100.00;100714.22;4409728;32;20610;-72
2021/01/02 01:59:17;;;;;;;1.60;1.60;;;;;;;1.00;100.00;100712.31;4386289;32;20088;-71
2021/01/02 02:01:46;;;;;;;1.60;1.60;;;;;;;1.00;100.00;100722.84;4407648;32;20577;-72
2021/01/02 02:04:11;;;;;;;1.60;1.60;;;;;;;1.02;100.00;100714.75;4399170;32;20149;-72
2021/01/02 02:06:37;;;;;;;1.85;1.80;;;;;;;1.02;100.00;100714.75;4408810;32;20083;-71
2021/01/02 02:09:03;;;;;;;1.55;1.55;;;;;;;1.01;100.00;100713.94;4400026;32;20638;-72
2021/01/02 02:11:42;;;;;;;1.83;1.80;;;;;;;1.03;100.00;100716.44;4398543;32;20681;-72
2021/01/02 02:14:13;;;;;;;1.40;1.40;;;;;;;1.02;100.00;100712.97;4412785;32;20080;-72
2021/01/02 02:16:51;;;;;;;1.70;1.70;;;;;;;1.03;100.00;100719.06;4405052;32;20120;-70
2021/01/02 02:19:35;;;;;;;1.50;1.50;;;;;;;1.02;100.00;100717.41;4415742;32;20084;-71
2021/01/02 02:22:03;;;;;;;1.50;1.50;;;;;;;0.99;100.00;100717.72;4415779;32;20089;-72
2021/01/02 02:24:30;;;;;;;2.12;2.03;;;;;;;0.96;100.00;100726.72;4413771;32;20130;-72
2021/01/02 02:26:55;;;;;;;1.80;1.80;;;;;;;0.91;100.00;100719.28;4398104;32;21166;-72
2021/01/02 02:29:24;;;;;;;1.65;1.62;;;;;;;0.95;100.00;100730.34;4399173;32;20408;-71
2021/01/02 02:31:50;;;;;;;1.87;1.83;;;;;;;0.89;100.00;100718.56;4411165;32;20130;-72
2021/01/02 02:34:15;;;;;;;1.50;1.50;;;;;;;0.94;100.00;100728.66;4386397;32;20073;-70
2021/01/02 02:36:42;;;;;;;2.50;2.40;;;;;;;0.94;100.00;100755.81;4398274;32;20616;-71
2021/01/02 02:39:11;;;;;;;2.08;1.98;;;;;;;0.95;100.00;100717.19;4394333;32;20574;-72
2021/01/02 02:41:41;;;;;;;2.10;2.00;;;;;;;0.95;100.00;100740.88;4399787;32;20474;-71
2021/01/02 02:44:07;;;;;;;2.40;2.30;;;;;;;1.01;100.00;100732.37;4409754;32;20122;-71
2021/01/02 02:46:33;;;;;;;1.62;1.62;;;;;;;1.04;100.00;100734.72;4402623;32;20104;-71
2021/01/02 02:49:01;;;;;;;2.53;2.35;;;;;;;1.07;100.00;100733.59;4384289;32;20095;-71
2021/01/02 02:51:27;;;;;;;2.33;2.22;;;;;;;1.09;100.00;100729.84;4387846;32;20084;-71
2021/01/02 02:53:52;;;;;;;1.70;1.70;;;;;;;0.82;100.00;100692.97;4395034;32;20139;-71
2021/01/02 02:56:17;;;;;;;2.12;2.03;;;;;;;1.16;100.00;100735.37;4385002;32;20545;-71
2021/01/02 02:58:43;;;;;;;1.50;1.50;;;;;;;1.13;100.00;100728.56;4384007;32;20084;-71
2021/01/02 03:01:09;;;;;;;1.50;1.50;;;;;;;1.11;100.00;100733.16;4390856;32;20085;-71
2021/01/02 03:03:34;;;;;;;1.60;1.60;;;;;;;1.22;100.00;100739.22;4390574;32;20682;-71
2021/01/02 03:06:00;;;;;;;1.60;1.60;;;;;;;1.22;100.00;100734.78;4386646;32;20243;-71
2021/01/02 03:08:25;;;;;;;1.98;1.90;;;;;;;1.22;100.00;100731.31;4397046;32;20945;-73
2021/01/02 03:10:51;;;;;;;1.83;1.83;;;;;;;0.96;100.00;100697.75;4388854;32;20072;-70
2021/01/02 03:13:16;;;;;;;1.65;1.65;;;;;;;1.22;100.00;100733.94;4393798;32;20168;-73
2021/01/02 03:15:42;;;;;;;2.00;1.90;;;;;;;1.22;100.00;100737.41;4376982;32;20069;-73
2021/01/02 03:18:08;;;;;;;1.60;1.60;;;;;;;1.21;100.00;100727.88;4388501;32;20096;-71
2021/01/02 03:20:33;;;;;;;1.50;1.50;;;;;;;1.25;100.00;100734.47;4384042;32;20555;-71
2021/01/02 03:22:59;;;;;;;1.60;1.60;;;;;;;1.25;100.00;100741.56;4385812;32;20077;-70
2021/01/02 03:25:24;;;;;;;1.75;1.75;;;;;;;1.28;100.00;100746.56;4395461;32;20452;-71
2021/01/02 03:27:53;;;;;;;1.90;1.80;;;;;;;1.28;100.00;100736.00;4377289;32;20437;-71
2021/01/02 03:30:18;;;;;;;1.70;1.70;;;;;;;1.29;100.00;100735.03;4380621;32;20397;-71
2021/01/02 03:32:44;;;;;;;1.90;1.80;;;;;;;1.28;100.00;100741.28;4385293;32;21044;-70
2021/01/02 03:35:10;;;;;;;1.70;1.70;;;;;;;1.29;100.00;100737.66;4389921;32;20550;-71
2021/01/02 03:37:37;;;;;;;1.60;1.60;;;;;;;1.29;100.00;100738.50;4382912;32;20084;-71
2021/01/02 03:40:07;;;;;;;1.50;1.50;;;;;;;1.29;100.00;100740.28;4393177;32;20292;-71
2021/01/02 03:42:39;;;;;;;1.70;1.70;;;;;;;1.29;100.00;100737.66;4393472;32;20309;-71
2021/01/02 03:45:05;;;;;;;1.60;1.60;;;;;;;1.29;100.00;100735.87;4388771;32;20080;-71
2021/01/02 03:47:31;;;;;;;1.60;1.60;;;;;;;1.29;100.00;100730.59;4413722;32;20088;-71
2021/01/02 03:49:56;;;;;;;2.40;2.30;;;;;;;1.31;100.00;100733.06;4394681;32;20087;-71
2021/01/02 03:52:22;;;;;;;1.55;1.55;;;;;;;1.33;100.00;100741.66;4407608;32;20112;-72
2021/01/02 03:54:47;;;;;;;1.50;1.50;;;;;;;1.34;100.00;100739.84;4410133;32;20079;-71
2021/01/02 03:57:12;;;;;;;2.05;1.95;;;;;;;1.35;100.00;100737.06;4378451;32;20076;-71
2021/01/02 03:59:38;;;;;;;1.40;1.40;;;;;;;1.36;100.00;100737.91;4407033;32;20881;-71
2021/01/02 04:02:03;;;;;;;1.60;1.60;;;;;;;1.35;100.00;100736.25;4399259;32;20881;-71
2021/01/02 04:04:28;;;;;;;1.60;1.60;;;;;;;1.35;100.00;100737.06;4412260;32;20060;-71
2021/01/02 04:06:54;;;;;;;2.67;2.50;;;;;;;1.28;100.00;100720.19;4380902;32;20095;-71
2021/01/02 04:09:20;;;;;;;2.30;2.20;;;;;;;1.15;100.00;100696.00;4385785;32;20076;-71
2021/01/02 04:11:45;;;;;;;1.50;1.50;;;;;;;1.38;100.00;100725.41;4396383;32;20079;-71
2021/01/02 04:14:11;;;;;;;1.92;1.83;;;;;;;1.26;100.00;100704.53;4385180;32;20153;-71
2021/01/02 04:16:37;;;;;;;1.80;1.80;;;;;;;1.37;100.00;100721.94;4385854;32;20083;-72
2021/01/02 04:19:03;;;;;;;1.60;1.60;;;;;;;1.33;100.00;100717.94;4402513;32;20094;-72
2021/01/02 04:21:29;;;;;;;1.60;1.60;;;;;;;1.38;100.00;100725.41;4406533;32;20601;-70
2021/01/02 04:23:54;;;;;;;1.87;1.83;;;;;;;0.53;100.00;100586.00;4398356;32;20060;-70
2021/01/02 04:26:20;;;;;;;2.47;2.37;;;;;;;1.39;100.00;100727.88;4384962;32;20071;-71
2021/01/02 04:28:46;;;;;;;2.20;2.10;;;;;;;1.38;100.00;100726.25;4406967;32;20126;-71
2021/01/02 04:31:12;;;;;;;1.73;1.73;;;;;;;1.38;100.00;100723.62;4408220;32;20527;-72
2021/01/02 04:33:37;;;;;;;1.70;1.70;;;;;;;1.39;100.00;100722.63;4405929;32;20109;-72
2021/01/02 04:36:03;;;;;;;1.50;1.50;;;;;;;1.39;100.00;100727.88;4402346;27;20760;-72
2021/01/02 04:38:29;;;;;;;1.80;1.80;;;;;;;1.30;100.00;100712.97;4386234;32;20192;-72
2021/01/02 04:40:55;;;;;;;1.70;1.70;;;;;;;1.37;100.00;100724.56;4410606;32;20072;-72
2021/01/02 04:43:21;;;;;;;3.35;3.25;;;;;;;1.02;100.00;100670.84;4405264;32;20176;-72
2021/01/02 04:45:46;;;;;;;1.70;1.70;;;;;;;1.38;100.00;100723.62;4409849;32;20075;-72
2021/01/02 04:48:11;;;;;;;1.65;1.65;;;;;;;1.31;100.00;100720.72;4397266;32;20153;-72
2021/01/02 04:50:37;;;;;;;1.50;1.50;;;;;;;1.37;100.00;100732.47;4405173;32;20333;-72
2021/01/02 04:53:03;;;;;;;1.60;1.60;;;;;;;1.38;100.00;100723.62;4383376;32;20615;-72
2021/01/02 04:55:28;;;;;;;2.00;1.90;;;;;;;1.37;100.00;100723.75;4397032;32;20080;-72
2021/01/02 04:57:53;;;;;;;1.87;1.85;;;;;;;1.35;100.00;100726.53;4399980;32;20092;-72
2021/01/02 05:00:19;;;;;;;1.50;1.50;;;;;;;1.35;99.76;100736.25;4408751;32;20075;-71
2021/01/02 05:02:45;;;;;;;1.60;1.60;;;;;;;1.18;99.09;100707.06;4398825;32;20068;-71
2021/01/02 05:05:10;;;;;;;2.58;2.37;;;;;;;1.33;99.29;100733.75;4406432;32;20080;-71
2021/01/02 05:07:36;;;;;;;2.17;2.08;;;;;;;1.31;98.82;100735.69;4382276;32;20069;-70
2021/01/02 05:10:02;;;;;;;1.60;1.60;;;;;;;1.30;99.38;100734.88;4409572;32;20087;-71
2021/01/02 05:12:30;;;;;;;1.48;1.48;;;;;;;1.27;98.80;100740.44;4381122;32;20450;-71
2021/01/02 05:14:57;;;;;;;2.15;2.05;;;;;;;1.28;99.35;100746.56;4392077;32;20068;-71
2021/01/02 05:17:26;;;;;;;1.80;1.70;;;;;;;1.28;99.52;100746.56;4407208;32;20154;-71
2021/01/02 05:20:14;;;;;;;1.60;1.60;;;;;;;1.28;99.69;100751.81;4395889;32;20084;-70
2021/01/02 05:22:40;;;;;;;1.60;1.60;;;;;;;1.30;99.87;100757.78;4410735;32;20146;-70
2021/01/02 05:25:13;;;;;;;1.40;1.40;;;;;;;1.32;99.32;100753.19;4388054;32;20487;-73
2021/01/02 05:27:40;;;;;;;1.87;1.87;;;;;;;1.32;99.65;100755.81;4407608;32;20758;-71
2021/01/02 05:30:26;;;;;;;1.40;1.40;;;;;;;1.30;100.00;100755.13;4397895;32;20711;-71
2021/01/02 05:33:01;;;;;;;1.42;1.42;;;;;;;1.30;100.00;100760.41;4390108;32;20285;-71
2021/01/02 05:35:28;;;;;;;1.60;1.60;;;;;;;1.30;99.68;100757.78;4385316;32;20166;-71
2021/01/02 05:37:54;;;;;;;1.95;1.87;;;;;;;1.22;99.78;100749.75;4404200;32;20602;-70
2021/01/02 05:40:53;;;;;;;1.65;1.65;;;;;;;1.28;100.00;100757.09;4381074;32;20134;-71
2021/01/02 05:43:23;;;;;;;1.45;1.45;;;;;;;1.29;100.00;100761.38;4380612;32;20123;-72
2021/01/02 05:45:50;;;;;;;1.45;1.45;;;;;;;1.28;100.00;100762.37;4399210;32;20594;-72
2021/01/02 05:48:42;;;;;;;1.73;1.73;;;;;;;1.30;100.00;100763.03;4404989;32;20087;-72
2021/01/02 05:51:08;;;;;;;1.50;1.50;;;;;;;1.32;100.00;100766.34;4408256;32;20480;-71
2021/01/02 05:53:34;;;;;;;1.70;1.70;;;;;;;1.33;100.00;100768.03;4403200;32;20100;-71
2021/01/02 05:56:13;;;;;;;2.17;2.08;;;;;;;1.34;100.00;100767.03;4399490;32;20397;-70
2021/01/02 05:58:42;;;;;;;2.17;2.00;;;;;;;1.35;100.00;100767.88;4386446;32;20076;-73
2021/01/02 06:01:08;;;;;;;1.50;1.50;;;;;;;1.34;100.00;100767.03;4381779;32;20183;-71
2021/01/02 06:03:35;;;;;;;1.87;1.80;;;;;;;1.31;100.00;100762.03;4395065;32;20083;-72
2021/01/02 06:06:10;;;;;;;1.70;1.70;;;;;;;1.31;100.00;100768.16;4401972;32;20095;-70
2021/01/02 06:08:41;;;;;;;1.52;1.52;;;;;;;1.36;100.00;100775.63;4401550;32;20097;-71
2021/01/02 06:11:08;;;;;;;1.52;1.52;;;;;;;1.32;100.00;100766.34;4390717;32;20095;-70
2021/01/02 06:13:36;;;;;;;4.43;2.03;;;;;;;1.35;100.00;100768.69;4409606;32;20069;-71
2021/01/02 06:16:04;;;;;;;4.28;2.55;;;;;;;1.37;100.00;100777.28;4403832;32;20143;-71
2021/01/02 06:18:35;;;;;;;1.73;1.73;;;;;;;1.15;100.00;100735.53;4396529;32;20104;-71
2021/01/02 06:21:02;;;;;;;1.85;1.85;;;;;;;1.37;100.00;100768.56;4394530;32;20656;-71
2021/01/02 06:23:27;;;;;;;3.53;2.20;;;;;;;1.36;99.75;100774.78;4400086;32;20079;-72
2021/01/02 06:25:53;;;;;;;2.05;1.98;;;;;;;0.52;99.69;100655.41;4387626;32;20610;-71
2021/01/02 06:28:19;;;;;;;2.20;2.10;;;;;;;1.28;100.00;100762.37;4406730;32;20179;-72
2021/01/02 06:30:44;;;;;;;1.50;1.50;;;;;;;1.36;99.22;100775.63;4401931;32;20150;-71
2021/01/02 06:33:16;;;;;;;1.58;1.58;;;;;;;1.38;98.91;100781.59;4398345;32;20664;-71
2021/01/02 06:35:42;;;;;;;2.95;2.75;;;;;;;1.39;99.37;100785.87;4410908;32;20199;-72
2021/01/02 06:38:09;;;;;;;1.70;1.67;;;;;;;1.38;98.03;100783.38;4396376;32;20214;-72
2021/01/02 06:40:43;;;;;;;12.30;3.35;;;;;;;1.23;98.70;100751.44;4402845;32;20631;-71
2021/01/02 06:43:13;;;;;;;1.50;1.50;;;;;;;1.40;98.64;100787.53;4397442;32;20077;-72
2021/01/02 06:45:38;;;;;;;1.85;1.75;;;;;;;1.42;98.00;100785.59;4401281;32;20096;-71
2021/01/02 06:48:15;;;;;;;1.50;1.50;;;;;;;1.43;98.55;100781.12;4414266;32;20095;-72
2021/01/02 06:50:44;;;;;;;1.50;1.50;;;;;;;1.43;98.12;100776.72;4409131;32;20072;-72
2021/01/02 06:53:25;;;;;;;1.60;1.60;;;;;;;1.44;98.46;100782.81;4397577;32;20072;-72
2021/01/02 06:56:06;;;;;;;1.50;1.50;;;;;;;1.39;97.90;100780.59;4389550;32;20087;-71
2021/01/02 06:58:44;;;;;;;1.60;1.60;;;;;;;1.42;97.99;100784.75;4407450;32;20801;-72
2021/01/02 07:01:16;;;;;;;1.60;1.60;;;;;;;1.43;98.23;100783.75;4404813;32;20188;-71
2021/01/02 07:03:41;;;;;;;1.60;1.60;;;;;;;1.43;98.46;100792.53;4424065;32;20068;-73
2021/01/02 07:06:25;;;;;;;1.62;1.62;;;;;;;1.42;98.64;100795.31;4417429;32;20175;-72
2021/01/02 07:09:01;;;;;;;1.60;1.60;;;;;;;1.11;98.88;100746.34;4420712;32;20160;-72
2021/01/02 07:11:31;;;;;;;1.80;1.77;;;;;;;1.41;98.48;100801.53;4397835;32;20061;-72
2021/01/02 07:16:34;;;;;;;1.60;1.60;;;;;;;1.40;99.00;100798.09;4420051;32;20502;-72
2021/01/02 07:19:00;;;;;;;1.60;1.60;;;;;;;1.41;99.60;100802.34;4395588;32;20074;-72
2021/01/02 07:21:38;;;;;;;1.70;1.70;;;;;;;1.42;98.95;100805.84;4386450;32;20140;-72
2021/01/02 07:24:22;;;;;;;1.60;1.60;;;;;;;1.43;99.63;100805.69;4379304;32;20072;-72
2021/01/02 07:26:48;;;;;;;1.50;1.50;;;;;;;1.44;99.18;100804.72;4399709;32;20076;-71
2021/01/02 07:29:19;;;;;;;1.80;1.75;;;;;;;1.44;99.71;100798.63;4394607;32;20068;-72
2021/01/02 07:31:45;;;;;;;1.60;1.60;;;;;;;1.42;99.30;100804.03;4405370;32;20121;-72
2021/01/02 07:34:21;;;;;;;1.52;1.52;;;;;;;1.40;99.48;100808.62;4389420;32;20068;-73
2021/01/02 07:36:46;;;;;;;1.60;1.60;;;;;;;1.43;99.52;100810.13;4402515;32;20686;-73
2021/01/02 07:39:13;;;;;;;1.70;1.70;;;;;;;1.17;99.78;100780.97;4401874;32;20093;-74
2021/01/02 07:41:38;;;;;;;1.87;1.83;;;;;;;1.43;99.20;100821.53;4415477;32;20926;-73
2021/01/02 07:44:04;;;;;;;2.20;2.10;;;;;;;1.45;99.89;100811.66;4401904;32;20243;-73
2021/01/02 07:46:31;;;;;;;1.70;1.70;;;;;;;1.45;99.23;100822.19;4405253;32;20084;-72
2021/01/02 07:48:56;;;;;;;1.92;1.85;;;;;;;1.41;99.92;100820.81;4398688;32;20058;-74
2021/01/02 07:51:22;;;;;;;1.80;1.80;;;;;;;1.38;99.94;100815.00;4402486;32;20088;-73
2021/01/02 07:53:54;;;;;;;1.52;1.52;;;;;;;1.52;99.82;100818.97;4403442;32;20119;-72
2021/01/02 07:56:33;;;;;;;1.70;1.70;;;;;;;1.52;99.25;100832.12;4399871;32;20099;-73
2021/01/02 07:59:17;;;;;;;1.50;1.50;;;;;;;1.49;99.50;100834.09;4400628;32;20088;-72
2021/01/02 08:01:43;;;;;;;1.60;1.60;;;;;;;1.44;99.41;100809.97;4405374;32;20061;-72
2021/01/02 08:04:08;;;;;;;2.08;1.98;;;;;;;1.56;99.45;100828.25;4400320;32;20214;-73
2021/01/02 08:06:34;;;;;;;1.62;1.62;;;;;;;1.59;98.78;100833.25;4393131;32;20119;-73
2021/01/02 08:08:59;;;;;;;2.20;2.10;;;;;;;1.58;98.71;100821.03;4383065;32;20131;-73
2021/01/02 08:11:24;;;;;;;1.77;1.75;;;;;;;1.63;98.99;100837.22;4388944;32;20104;-72
2021/01/02 08:13:50;;;;;;;1.80;1.80;;;;;;;1.66;99.36;100836.94;4384498;32;20069;-72
2021/01/02 08:16:15;;;;;;;1.60;1.60;;;;;;;1.45;98.70;100806.37;4419664;32;21071;-72
2021/01/02 08:18:41;;;;;;;1.65;1.65;;;;;;;1.64;98.65;100847.63;4393143;32;20104;-71
2021/01/02 08:21:06;;;;;;;1.60;1.60;;;;;;;1.63;98.03;100850.41;4394153;32;20080;-71
2021/01/02 08:23:31;;;;;;;1.65;1.65;;;;;;;1.06;97.76;100743.31;4389080;32;20142;-70
2021/01/02 08:25:57;;;;;;;2.10;2.00;;;;;;;1.64;97.82;100846.81;4379523;32;20610;-73
2021/01/02 08:28:22;;;;;;;2.05;1.95;;;;;;;1.67;98.06;100835.94;4391710;32;20085;-72
2021/01/02 08:30:47;;;;;;;1.52;1.52;;;;;;;1.69;97.89;100840.13;4400092;32;20149;-71
2021/01/02 08:33:13;;;;;;;2.00;1.90;;;;;;;1.73;98.20;100851.19;4408921;32;20108;-72
2021/01/02 08:35:39;;;;;;;1.73;1.73;;;;;;;1.77;98.13;100843.81;4394456;32;20100;-71
2021/01/02 08:38:06;;;;;;;1.70;1.70;;;;;;;1.80;97.37;100846.16;4390938;32;20124;-72
2021/01/02 08:40:50;;;;;;;2.00;1.90;;;;;;;1.79;97.19;100842.69;4407459;32;20076;-71
2021/01/02 08:43:25;;;;;;;1.60;1.60;;;;;;;1.78;96.70;100848.94;4417984;32;20152;-73
2021/01/02 08:46:03;;;;;;;1.50;1.50;;;;;;;1.85;97.87;100852.66;4405936;32;20096;-71
2021/01/02 08:48:29;;;;;;;1.90;1.80;;;;;;;1.94;97.60;100852.75;4393102;32;20207;-71
2021/01/02 08:50:54;;;;;;;1.90;1.80;;;;;;;1.96;97.75;100856.06;4386342;32;20799;-72
2021/01/02 08:53:24;;;;;;;3.12;2.20;;;;;;;2.01;96.58;100859.91;4404308;32;20103;-71
2021/01/02 08:55:49;;;;;;;1.60;1.60;;;;;;;2.01;96.30;100865.19;4393266;32;20087;-71
2021/01/02 08:58:14;;;;;;;1.73;1.73;;;;;;;2.03;96.23;100862.41;4389787;32;20081;-67
2021/01/02 09:00:40;;;;;;;2.10;2.00;;;;;;;2.00;94.36;100866.19;4389996;32;20077;-70
2021/01/02 09:03:07;;;;;;;1.80;1.80;;;;;;;2.05;94.87;100869.19;4392454;32;20093;-70
2021/01/02 09:05:37;;;;;;;2.00;1.90;;;;;;;2.06;95.65;100868.19;4390267;32;20120;-68
2021/01/02 09:08:10;;;;;;;1.70;1.70;;;;;;;2.06;95.59;100868.19;4399706;32;20183;-70
2021/01/02 09:10:35;;;;;;;2.10;2.00;;;;;;;2.09;95.49;100869.72;4382626;32;21052;-68
2021/01/02 09:13:02;;;;;;;1.60;1.60;;;;;;;2.02;95.05;100869.50;4425674;32;20084;-71
2021/01/02 09:15:47;;;;;;;1.70;1.70;;;;;;;2.06;95.59;100877.94;4401221;32;20072;-68
2021/01/02 09:18:13;;;;;;;1.60;1.60;;;;;;;2.10;95.48;100876.66;4397344;32;20072;-69
2021/01/02 09:20:39;;;;;;;1.50;1.50;;;;;;;2.16;96.16;100878.72;4406557;32;20092;-68
2021/01/02 09:23:04;;;;;;;2.10;2.00;;;;;;;1.38;95.86;100742.06;4381667;32;20084;-70
2021/01/02 09:25:30;;;;;;;1.60;1.60;;;;;;;2.29;95.69;100888.06;4388802;32;20064;-69
2021/01/02 09:27:56;;;;;;;1.58;1.58;;;;;;;2.33;94.94;100886.78;4392262;32;20682;-69
2021/01/02 09:30:22;;;;;;;1.67;1.67;;;;;;;2.37;95.38;100888.97;4385300;32;20073;-69
2021/01/02 09:32:47;;;;;;;2.00;1.90;;;;;;;2.41;94.30;100886.88;4395971;32;20065;-68
2021/01/02 09:35:13;;;;;;;2.22;2.12;;;;;;;2.43;94.56;100885.75;4402729;32;20077;-69
2021/01/02 09:37:38;;;;;;;1.80;1.75;;;;;;;2.51;93.70;100892.91;4420491;32;20100;-70
2021/01/02 09:40:18;;;;;;;1.70;1.70;;;;;;;2.54;94.05;100895.25;4400887;32;20095;-71
2021/01/02 09:42:44;;;;;;;2.20;2.10;;;;;;;2.50;93.73;100895.69;4397431;32;21994;-69
2021/01/02 09:45:10;;;;;;;2.33;2.22;;;;;;;2.57;92.77;100899.38;4389965;32;20069;-69
2021/01/02 09:47:35;;;;;;;1.60;1.60;;;;;;;2.54;92.84;100902.34;4396196;32;20085;-69
2021/01/02 09:50:01;;;;;;;1.80;1.80;;;;;;;2.50;92.54;100901.81;4390803;32;20110;-68
2021/01/02 09:52:26;;;;;;;1.70;1.70;;;;;;;2.33;93.22;100873.56;4388270;32;20579;-68
2021/01/02 09:54:51;;;;;;;1.70;1.70;;;;;;;2.55;92.75;100909.25;4394135;32;20092;-70
2021/01/02 09:57:17;;;;;;;2.00;1.90;;;;;;;2.53;92.79;100912.06;4383792;32;20080;-71
2021/01/02 09:59:43;;;;;;;1.50;1.50;;;;;;;2.57;93.26;100902.88;4383345;32;20910;-69
2021/01/02 10:02:08;;;;;;;1.80;1.80;;;;;;;2.63;93.62;100899.59;4408630;32;20770;-68
2021/01/02 10:04:34;;;;;;;1.65;1.65;;;;;;;2.57;92.00;100902.88;4404862;32;20076;-67
2021/01/02 10:06:59;;;;;;;1.65;1.65;;;;;;;2.63;92.59;100909.34;4386256;32;20087;-67
2021/01/02 10:09:25;;;;;;;1.70;1.70;;;;;;;2.71;92.60;100903.28;4385426;32;20085;-67
2021/01/02 10:11:50;;;;;;;8.23;2.42;;;;;;;2.70;92.06;100897.19;4411519;32;20117;-67
2021/01/02 10:14:15;;;;;;;1.60;1.60;;;;;;;2.84;91.50;100902.91;4384280;32;20087;-66
2021/01/02 10:16:41;;;;;;;1.80;1.80;;;;;;;2.88;91.45;100906.91;4394817;32;20485;-67
2021/01/02 10:19:08;;;;;;;2.12;2.03;;;;;;;2.92;90.79;100909.09;4395625;32;20069;-68
2021/01/02 10:21:33;;;;;;;2.00;1.90;;;;;;;3.00;90.87;100908.31;4399194;32;20638;-67
2021/01/02 10:23:59;;;;;;;1.80;1.80;;;;;;;2.99;89.35;100912.78;4383571;32;20069;-68
2021/01/02 10:26:24;;;;;;;2.20;2.10;;;;;;;3.00;89.58;100903.88;4384102;32;20073;-67
2021/01/02 10:28:50;;;;;;;1.90;1.85;;;;;;;3.03;90.20;100907.19;4411854;32;20147;-67
2021/01/02 10:31:22;;;;;;;2.22;2.15;;;;;;;3.01;90.28;100904.69;4393197;32;20564;-67
2021/01/02 10:33:47;;;;;;;1.80;1.80;;;;;;;2.98;89.14;100899.72;4396393;32;20135;-68
2021/01/02 10:36:13;;;;;;;2.00;1.90;;;;;;;3.01;89.22;100899.41;4393851;32;20554;-68
2021/01/02 10:38:38;;;;;;;1.95;1.90;;;;;;;2.99;88.76;100896.94;4410694;32;20072;-67
2021/01/02 10:41:04;;;;;;;1.80;1.80;;;;;;;2.94;88.43;100887.81;4405851;32;20121;-67
2021/01/02 10:43:29;;;;;;;2.20;2.10;;;;;;;3.06;87.81;100889.22;4400415;32;20068;-67
2021/01/02 10:45:54;;;;;;;2.05;1.98;;;;;;;3.21;87.52;100884.19;4392393;32;20084;-67
2021/01/02 10:48:20;;;;;;;1.70;1.70;;;;;;;3.29;85.82;100888.69;4409228;32;21012;-70
2021/01/02 10:50:45;;;;;;;2.12;2.03;;;;;;;3.11;83.69;100870.25;4390359;32;20077;-71
2021/01/02 10:53:10;;;;;;;2.33;2.17;;;;;;;3.06;85.44;100877.81;4406881;32;20558;-70
2021/01/02 10:55:36;;;;;;;1.60;1.60;;;;;;;2.81;84.12;100877.63;4408967;32;20084;-71
2021/01/02 10:58:01;;;;;;;2.28;2.17;;;;;;;2.92;86.37;100877.37;4384206;32;20073;-69
2021/01/02 11:00:27;;;;;;;2.28;2.17;;;;;;;3.14;86.80;100873.41;4393388;32;20129;-69
2021/01/02 11:02:52;;;;;;;2.08;1.98;;;;;;;3.39;85.74;100868.25;4404712;32;20607;-70
2021/01/02 11:05:17;;;;;;;1.55;1.55;;;;;;;3.57;85.05;100873.50;4406991;32;20076;-71
2021/01/02 11:07:43;;;;;;;2.25;2.10;;;;;;;3.56;83.21;100877.94;4389312;32;20085;-68
2021/01/02 11:10:09;;;;;;;1.80;1.80;;;;;;;3.59;83.15;100876.81;4376671;32;20117;-68
2021/01/02 11:12:34;;;;;;;1.80;1.80;;;;;;;3.58;83.28;100870.66;4393710;32;20098;-68
2021/01/02 11:15:00;;;;;;;2.37;2.15;;;;;;;3.60;81.57;100862.56;4384474;32;20084;-70
2021/01/02 11:17:25;;;;;;;1.73;1.73;;;;;;;3.75;81.90;100870.75;4374527;32;20547;-72
2021/01/02 11:19:50;;;;;;;2.00;1.90;;;;;;;3.27;80.74;100783.09;4385920;32;20147;-69
2021/01/02 11:22:16;;;;;;;2.87;2.60;;;;;;;3.71;80.53;100858.84;4408331;32;20099;-70
2021/01/02 11:24:43;;;;;;;1.67;1.67;;;;;;;3.57;79.88;100862.91;4393482;32;20105;-69
2021/01/02 11:27:09;;;;;;;1.70;1.70;;;;;;;3.59;80.39;100860.94;4389119;32;20106;-70
2021/01/02 11:29:34;;;;;;;1.60;1.60;;;;;;;3.59;80.54;100858.28;4380571;32;20717;-70
2021/01/02 11:32:07;;;;;;;1.80;1.80;;;;;;;3.60;81.76;100828.19;4397247;32;20588;-71
2021/01/02 11:34:32;;;;;;;;;;;;;;;3.86;82.34;100840.50;4383685;32;20136;-70
2021/01/02 11:36:59;;;;;;;1.80;1.80;;;;;;;3.87;80.74;100842.19;4401448;32;20566;-68
2021/01/02 11:39:25;;;;;;;1.80;1.80;;;;;;;3.83;81.67;100819.66;4385834;32;20080;-70